Comprendre le Metar Roissy de ce matin

Aller en bas

Comprendre le Metar Roissy de ce matin

Message  Invité le Jeu 2 Déc - 11:16

METAR :
METAR LFPG 020730Z 17010KT 2200 -SN BKN008 BKN011 M03/M04 Q1004 0819//61 5819//70 0919//63 5919//62 NOSIG=


le 02 à 07h30 Zoulou vent du 17010kt
Visibilité 2200 (sont précis à roissy)
Neige
Broken 800ft
T°/ point de rosé = -3/-4
QNH 1004

Jusque la pas de probleme, mais après!

0819//61
5819//70
0919//63
5919//62

Nosig = Sans changement significatif.

Bon les 0819, 5819... c'est quoi ce truc marqué nul part ?

Le 19 revient tout le temps, les // idem...

Bon OK c'est spécifique à CDG, mais je voudrais savoir quand même.

Piste = peu probable
horaire = délirium tremence
TWY ?
code transpondeur ?
météorologiste qui a abusé de la boisson de Luck ?
Russe endormie ?

Merki

Pascal

Invité
Invité


Revenir en haut Aller en bas

Re: Comprendre le Metar Roissy de ce matin

Message  Dom le Jeu 2 Déc - 11:32

page 12 du guide aviation...C'est l'état des pistes et le freinage.
avatar
Dom

Féminin Nombre de messages : 1508
Age : 74
Localisation : Paris 14
Date d'inscription : 15/09/2008

Revenir en haut Aller en bas

Re: Comprendre le Metar Roissy de ce matin

Message  Invité le Jeu 2 Déc - 14:26

Dom a écrit:page 12 du guide aviation...C'est l'état des pistes et le freinage.

ah! j'avais pas vu sur le guide, pourtant j'ai cherché.
Regarderais cela ce soir,
Merci

Invité
Invité


Revenir en haut Aller en bas

Re: Comprendre le Metar Roissy de ce matin

Message  Dom le Sam 4 Déc - 17:15

LFPG PARIS-CHARLES DE GAULLE
METAR: LFPG 041400Z 20015KT 3500 -PL BKN006 M00/M01 Q1013 2749//5

Je viens d'apprendre ce que veut dire PL : granules de glace....
Ça fait 25 ans que je vole, c'est la première fois que je vois ça....
Il faut dire aussi qu'avant d'avoir internet, je ne regardais pas la météo quand il faisait aussi mauvais.
avatar
Dom

Féminin Nombre de messages : 1508
Age : 74
Localisation : Paris 14
Date d'inscription : 15/09/2008

Revenir en haut Aller en bas

Re: Comprendre le Metar Roissy de ce matin

Message  Contenu sponsorisé


Contenu sponsorisé


Revenir en haut Aller en bas

Revenir en haut

- Sujets similaires

 
Permission de ce forum:
Vous ne pouvez pas répondre aux sujets dans ce forum